Time;durP1;ratioP1;P1;durP2;ratioP2;P2;SDS_P1;SDS_P2;PMS_P1;PMS_P2;Temp;Humidity;BMP_temperature;BMP_pressure;BME280_temperature;BME280_humidity;BME280_pressure;Samples;Min_cycle;Max_cycle;Signal;HPM_P1;HPM_P2
2021/04/18 00:01:51;;;;;;;18.77;5.90;;;;;;;;;;4407964;32;20226;-71
2021/04/18 00:04:16;;;;;;;11.23;5.60;;;;;;;;;;4421788;32;20176;-71
2021/04/18 00:06:41;;;;;;;15.83;5.77;;;;;;;;;;4422892;32;20184;-70
2021/04/18 00:09:08;;;;;;;18.40;5.60;;;;;;;;;;4422173;32;20138;-70
2021/04/18 00:11:33;;;;;;;17.83;6.23;;;;;;;;;;4422328;32;20535;-72
2021/04/18 00:13:59;;;;;;;19.50;6.50;;;;;;;;;;4421885;32;20221;-71
2021/04/18 00:16:24;;;;;;;18.77;6.03;;;;;;;;;;4421370;32;20205;-71
2021/04/18 00:18:50;;;;;;;14.57;6.10;;;;;;;;;;4421902;32;20142;-70
2021/04/18 00:21:15;;;;;;;16.63;5.70;;;;;;;;;;4409459;32;20173;-70
2021/04/18 00:23:41;;;;;;;16.90;6.00;;;;;;;;;;4421127;32;20199;-70
2021/04/18 00:26:09;;;;;;;15.97;5.90;;;;;;;;;;4422130;32;20175;-70
2021/04/18 00:28:37;;;;;;;18.63;5.70;;;;;;;;;;4421811;32;20234;-70
2021/04/18 00:31:05;;;;;;;15.30;5.97;;;;;;;;;;4422428;32;20146;-70
2021/04/18 00:33:30;;;;;;;13.90;5.63;;;;;;;;;;4421813;32;20189;-70
2021/04/18 00:35:55;;;;;;;14.73;5.70;;;;;;;;;;4421961;32;20208;-70
2021/04/18 00:38:21;;;;;;;19.73;5.50;;;;;;;;;;4407811;32;20222;-70
2021/04/18 00:40:46;;;;;;;18.20;5.87;;;;;;;;;;4421638;32;20154;-70
2021/04/18 00:43:12;;;;;;;18.87;6.73;;;;;;;;;;4421838;32;20186;-70
2021/04/18 00:45:37;;;;;;;17.87;6.97;;;;;;;;;;4407132;32;20188;-70
2021/04/18 00:48:03;;;;;;;14.47;5.67;;;;;;;;;;4420953;32;20142;-70
2021/04/18 00:50:33;;;;;;;17.63;6.47;;;;;;;;;;4421891;32;20134;-70
2021/04/18 00:52:58;;;;;;;16.67;7.03;;;;;;;;;;4421047;32;20165;-70
2021/04/18 00:55:31;;;;;;;18.53;7.00;;;;;;;;;;4421568;32;20176;-70
2021/04/18 00:57:57;;;;;;;24.60;7.10;;;;;;;;;;4421617;32;20138;-71
2021/04/18 01:00:23;;;;;;;17.63;6.77;;;;;;;;;;4421282;32;20138;-71
2021/04/18 01:02:51;;;;;;;20.30;7.40;;;;;;;;;;4407987;32;20196;-71
2021/04/18 01:05:17;;;;;;;16.83;6.23;;;;;;;;;;4421092;32;20142;-71
2021/04/18 01:07:43;;;;;;;21.53;7.33;;;;;;;;;;4420718;32;20165;-71
2021/04/18 01:10:09;;;;;;;20.57;7.63;;;;;;;;;;4421848;32;20142;-70
2021/04/18 01:12:34;;;;;;;17.77;7.37;;;;;;;;;;4420771;32;20182;-71
2021/04/18 01:15:00;;;;;;;15.43;6.67;;;;;;;;;;4421015;32;20137;-70
2021/04/18 01:17:26;;;;;;;17.80;6.47;;;;;;;;;;4421347;32;20165;-71
2021/04/18 01:19:52;;;;;;;16.70;6.50;;;;;;;;;;4421179;32;20138;-70
2021/04/18 01:22:17;;;;;;;15.77;6.17;;;;;;;;;;4420868;32;20168;-71
2021/04/18 01:24:42;;;;;;;17.83;7.37;;;;;;;;;;4420873;32;20153;-71
2021/04/18 01:27:10;;;;;;;20.87;7.10;;;;;;;;;;4421126;32;20150;-71
2021/04/18 01:29:36;;;;;;;22.23;6.83;;;;;;;;;;4406941;32;20166;-70
2021/04/18 01:32:01;;;;;;;18.63;7.03;;;;;;;;;;4420226;32;20177;-70
2021/04/18 01:34:27;;;;;;;17.03;7.73;;;;;;;;;;4420342;32;20146;-70
2021/04/18 01:36:52;;;;;;;19.63;7.40;;;;;;;;;;4420371;32;20197;-70
2021/04/18 01:39:17;;;;;;;21.20;7.93;;;;;;;;;;4421462;32;20198;-72
2021/04/18 01:41:43;;;;;;;18.13;7.33;;;;;;;;;;4422009;32;20660;-72
2021/04/18 01:44:18;;;;;;;18.73;7.40;;;;;;;;;;4420599;32;20154;-72
2021/04/18 01:46:44;;;;;;;26.10;7.53;;;;;;;;;;4407513;32;20169;-72
2021/04/18 01:49:10;;;;;;;22.93;8.33;;;;;;;;;;4420352;32;20208;-72
2021/04/18 01:51:35;;;;;;;22.73;8.57;;;;;;;;;;4420994;32;20138;-72
2021/04/18 01:57:05;;;;;;;15.83;7.17;;;;;;;;;;4357989;32;20167;-70
2021/04/18 01:59:30;;;;;;;22.10;8.97;;;;;;;;;;4358820;32;20177;-71
2021/04/18 02:05:26;;;;;;;24.90;7.77;;;;;;;;;;4343423;33;20254;-70
2021/04/18 02:07:51;;;;;;;26.73;8.83;;;;;;;;;;4367809;32;20200;-70
2021/04/18 02:10:17;;;;;;;22.53;8.03;;;;;;;;;;4405660;32;20138;-71
2021/04/18 02:12:43;;;;;;;18.40;8.50;;;;;;;;;;4405169;32;20146;-71
2021/04/18 02:15:34;;;;;;;26.67;9.73;;;;;;;;;;4405224;32;20168;-71
2021/04/18 02:18:45;;;;;;;23.20;8.80;;;;;;;;;;4405538;32;20245;-71
2021/04/18 02:20:58;;;;;;;28.30;9.23;;;;;;;;;;4414792;32;20169;-71
2021/04/18 02:23:27;;;;;;;25.47;8.83;;;;;;;;;;4423545;32;20479;-71
2021/04/18 02:25:52;;;;;;;23.27;9.53;;;;;;;;;;4423269;32;20153;-70
2021/04/18 02:28:26;;;;;;;25.83;9.80;;;;;;;;;;4423760;32;20432;-70
2021/04/18 02:30:51;;;;;;;25.37;11.17;;;;;;;;;;4423287;32;20246;-70
2021/04/18 02:33:16;;;;;;;22.60;10.57;;;;;;;;;;4423177;32;20575;-71
2021/04/18 02:35:45;;;;;;;23.77;10.10;;;;;;;;;;4422959;32;20520;-70
2021/04/18 02:38:35;;;;;;;21.90;10.10;;;;;;;;;;4423235;32;20195;-70
2021/04/18 02:41:00;;;;;;;25.53;10.17;;;;;;;;;;4423246;32;20138;-70
2021/04/18 02:43:26;;;;;;;22.53;10.50;;;;;;;;;;4408840;32;20190;-70
2021/04/18 02:45:57;;;;;;;27.77;10.37;;;;;;;;;;4423165;32;20141;-70
2021/04/18 02:48:23;;;;;;;23.73;10.53;;;;;;;;;;4423285;32;20188;-70
2021/04/18 02:50:48;;;;;;;19.87;9.40;;;;;;;;;;4423495;32;20134;-70
2021/04/18 02:53:13;;;;;;;17.90;9.63;;;;;;;;;;4422378;32;20150;-70
2021/04/18 02:55:51;;;;;;;;;;;;;;;;;;;;;
2021/04/18 02:58:17;;;;;;;21.70;10.10;;;;;;;;;;4420638;32;20500;-70
2021/04/18 03:00:45;;;;;;;21.13;9.70;;;;;;;;;;4422944;32;20134;-70
2021/04/18 03:03:12;;;;;;;18.33;10.60;;;;;;;;;;4422192;32;20176;-70
2021/04/18 03:05:46;;;;;;;21.20;9.73;;;;;;;;;;4423309;32;20164;-70
2021/04/18 03:08:12;;;;;;;20.90;11.27;;;;;;;;;;4409039;32;20184;-70
2021/04/18 03:11:16;;;;;;;;;;;;;;;;;;;;;
2021/04/18 03:13:51;;;;;;;24.63;11.10;;;;;;;;;;4359837;32;20170;-70
2021/04/18 03:16:29;;;;;;;33.83;15.13;;;;;;;;;;4360445;32;20138;-70
2021/04/18 03:18:55;;;;;;;21.13;10.33;;;;;;;;;;4409125;32;20185;-70
2021/04/18 03:21:36;;;;;;;26.37;10.57;;;;;;;;;;4422300;32;20146;-70
2021/04/18 03:24:02;;;;;;;21.80;10.97;;;;;;;;;;4421649;32;20552;-71
2021/04/18 03:27:35;;;;;;;24.70;10.13;;;;;;;;;;4422261;32;20218;-70
2021/04/18 03:29:50;;;;;;;20.43;10.63;;;;;;;;;;4407062;32;20199;-70
2021/04/18 03:32:16;;;;;;;27.93;13.13;;;;;;;;;;4422944;32;20192;-70
2021/04/18 03:35:23;;;;;;;22.63;10.30;;;;;;;;;;4423046;32;20134;-70
2021/04/18 03:37:29;;;;;;;20.53;10.40;;;;;;;;;;4414509;32;20282;-70
2021/04/18 03:39:57;;;;;;;22.73;11.43;;;;;;;;;;4408922;32;20598;-71
2021/04/18 03:42:31;;;;;;;19.70;9.77;;;;;;;;;;4422811;32;20149;-70
2021/04/18 03:44:57;;;;;;;19.07;10.27;;;;;;;;;;4422634;32;20145;-71
2021/04/18 03:47:35;;;;;;;22.33;10.30;;;;;;;;;;4422841;32;20641;-71
2021/04/18 03:50:01;;;;;;;25.13;10.97;;;;;;;;;;4422613;32;20266;-70
2021/04/18 03:52:26;;;;;;;21.80;10.17;;;;;;;;;;4422342;32;20642;-70
2021/04/18 03:54:51;;;;;;;22.17;10.40;;;;;;;;;;4422235;32;20439;-70
2021/04/18 03:57:17;;;;;;;20.10;9.83;;;;;;;;;;4422679;32;20165;-70
2021/04/18 03:59:42;;;;;;;20.30;9.67;;;;;;;;;;4422640;32;20150;-71
2021/04/18 04:02:08;;;;;;;20.77;9.53;;;;;;;;;;4422257;32;20173;-70
2021/04/18 04:04:33;;;;;;;21.23;10.47;;;;;;;;;;4422639;32;20138;-71
2021/04/18 04:06:58;;;;;;;24.07;11.20;;;;;;;;;;4422468;32;20149;-70
2021/04/18 04:09:24;;;;;;;27.40;11.47;;;;;;;;;;4408818;32;20217;-72
2021/04/18 04:11:49;;;;;;;21.50;9.97;;;;;;;;;;4420174;32;20172;-69
2021/04/18 04:14:14;;;;;;;20.50;9.93;;;;;;;;;;4406785;32;20173;-71
2021/04/18 04:16:40;;;;;;;22.83;10.40;;;;;;;;;;4407240;32;20246;-70
2021/04/18 04:19:05;;;;;;;23.47;10.07;;;;;;;;;;4407160;32;20138;-70
2021/04/18 04:21:52;;;;;;;23.20;9.93;;;;;;;;;;4406796;32;20187;-70
2021/04/18 04:24:17;;;;;;;21.17;9.97;;;;;;;;;;4411241;32;20188;-70
2021/04/18 04:26:43;;;;;;;22.77;9.97;;;;;;;;;;4421671;32;20462;-70
2021/04/18 04:29:18;;;;;;;20.63;10.23;;;;;;;;;;4421070;32;20134;-70
2021/04/18 04:31:43;;;;;;;23.20;11.10;;;;;;;;;;4421657;32;20142;-70
2021/04/18 04:34:32;;;;;;;25.50;10.63;;;;;;;;;;4421608;32;20142;-70
2021/04/18 04:36:57;;;;;;;24.57;10.00;;;;;;;;;;4420208;32;20153;-70
2021/04/18 04:39:22;;;;;;;24.00;12.33;;;;;;;;;;4421476;32;20490;-70
2021/04/18 04:41:48;;;;;;;25.63;10.93;;;;;;;;;;4421586;32;20201;-70
2021/04/18 04:44:16;;;;;;;20.30;10.27;;;;;;;;;;4421438;32;20130;-69
2021/04/18 04:46:42;;;;;;;28.47;12.73;;;;;;;;;;4421312;32;20479;-71
2021/04/18 04:49:08;;;;;;;24.77;13.33;;;;;;;;;;4421464;32;20470;-70
2021/04/18 04:51:33;;;;;;;29.20;13.00;;;;;;;;;;4421092;32;20176;-70
2021/04/18 04:54:07;;;;;;;21.33;10.47;;;;;;;;;;4420933;32;20602;-70
2021/04/18 04:56:32;;;;;;;21.50;10.03;;;;;;;;;;4421429;32;20195;-71
2021/04/18 04:59:07;;;;;;;25.60;11.70;;;;;;;;;;4421136;32;20166;-70
2021/04/18 05:01:33;;;;;;;23.63;10.90;;;;;;;;;;4421363;32;20526;-69
2021/04/18 05:03:58;;;;;;;21.53;10.20;;;;;;;;;;4421272;32;20198;-69
2021/04/18 05:06:32;;;;;;;22.90;10.50;;;;;;;;;;4421090;32;20180;-71
2021/04/18 05:09:01;;;;;;;23.33;10.37;;;;;;;;;;4421320;32;20141;-70
2021/04/18 05:11:26;;;;;;;21.70;10.30;;;;;;;;;;4420588;32;20446;-70
2021/04/18 05:13:51;;;;;;;22.90;10.40;;;;;;;;;;4419987;32;20191;-69
2021/04/18 05:16:17;;;;;;;22.40;10.17;;;;;;;;;;4420588;32;20149;-70
2021/04/18 05:21:46;;;;;;;20.57;9.53;;;;;;;;;;4392145;32;20252;-70
2021/04/18 05:24:13;;;;;;;21.67;10.03;;;;;;;;;;4406536;32;20571;-70
2021/04/18 05:26:41;;;;;;;20.70;10.27;;;;;;;;;;4421264;32;20138;-71
2021/04/18 05:29:30;;;;;;;22.40;10.33;;;;;;;;;;4420729;32;20195;-70
2021/04/18 05:31:55;;;;;;;22.07;12.67;;;;;;;;;;4409192;32;20285;-70
2021/04/18 05:34:49;;;;;;;20.67;11.23;;;;;;;;;;4420448;32;20548;-70
2021/04/18 05:37:14;;;;;;;18.73;10.47;;;;;;;;;;4406513;32;20240;-70
2021/04/18 05:39:39;;;;;;;22.77;10.53;;;;;;;;;;4420748;32;20134;-69
2021/04/18 05:44:50;;;;;;;23.00;12.07;;;;;;;;;;4396462;32;20217;-69
2021/04/18 05:47:19;;;;;;;20.47;10.17;;;;;;;;;;4420624;32;20141;-69
2021/04/18 05:49:44;;;;;;;21.07;11.57;;;;;;;;;;4419484;32;20211;-71
2021/04/18 05:52:09;;;;;;;17.07;10.30;;;;;;;;;;4420746;32;20137;-69
2021/04/18 05:54:34;;;;;;;22.27;10.67;;;;;;;;;;4420297;32;20170;-69
2021/04/18 05:57:00;;;;;;;19.40;9.60;;;;;;;;;;4406918;32;20235;-71
2021/04/18 05:59:25;;;;;;;22.17;10.07;;;;;;;;;;4421314;32;20138;-72
2021/04/18 06:01:53;;;;;;;18.77;9.33;;;;;;;;;;4406325;32;20576;-70
2021/04/18 06:04:18;;;;;;;21.27;9.53;;;;;;;;;;4420380;32;20475;-70
2021/04/18 06:06:43;;;;;;;17.47;8.17;;;;;;;;;;4420396;32;20141;-70
2021/04/18 06:09:09;;;;;;;18.23;9.53;;;;;;;;;;4406334;32;20154;-70
2021/04/18 06:11:34;;;;;;;20.07;9.40;;;;;;;;;;4421004;32;20196;-69
2021/04/18 06:13:59;;;;;;;22.70;9.20;;;;;;;;;;4420455;32;20134;-70
2021/04/18 06:16:24;;;;;;;20.93;9.10;;;;;;;;;;4420443;32;20543;-69
2021/04/18 06:18:52;;;;;;;18.70;8.67;;;;;;;;;;4420222;32;20157;-69
2021/04/18 06:21:18;;;;;;;20.37;9.13;;;;;;;;;;4420213;32;20146;-70
2021/04/18 06:23:43;;;;;;;16.63;8.97;;;;;;;;;;4420059;32;20199;-70
2021/04/18 06:26:09;;;;;;;18.10;8.47;;;;;;;;;;4420050;32;20192;-70
2021/04/18 06:28:34;;;;;;;17.50;8.00;;;;;;;;;;4420085;32;20288;-69
2021/04/18 06:30:59;;;;;;;15.73;6.40;;;;;;;;;;4420019;32;20491;-69
2021/04/18 06:33:25;;;;;;;12.60;7.57;;;;;;;;;;4420559;32;20250;-69
2021/04/18 06:35:50;;;;;;;21.40;9.27;;;;;;;;;;4420359;32;20476;-71
2021/04/18 06:38:37;;;;;;;15.43;8.00;;;;;;;;;;4419867;32;20215;-71
2021/04/18 06:41:05;;;;;;;18.23;8.40;;;;;;;;;;4421107;32;20254;-69
2021/04/18 06:43:31;;;;;;;16.67;7.93;;;;;;;;;;4420178;32;20211;-70
2021/04/18 06:45:56;;;;;;;16.13;8.00;;;;;;;;;;4420021;32;20153;-71
2021/04/18 06:48:22;;;;;;;19.53;9.37;;;;;;;;;;4419615;32;20558;-70
2021/04/18 06:50:58;;;;;;;16.50;8.73;;;;;;;;;;4419483;32;20158;-69
2021/04/18 06:53:23;;;;;;;19.93;9.30;;;;;;;;;;4420543;32;20133;-70
2021/04/18 06:55:49;;;;;;;19.63;8.57;;;;;;;;;;4420588;32;20471;-73
2021/04/18 06:58:14;;;;;;;16.47;8.83;;;;;;;;;;4419391;32;20230;-70
2021/04/18 07:00:51;;;;;;;14.57;8.77;;;;;;;;;;4405603;32;20169;-70
2021/04/18 07:03:21;;;;;;;16.40;9.70;;;;;;;;;;4419497;32;20608;-71
2021/04/18 07:05:47;;;;;;;17.30;8.97;;;;;;;;;;4421916;32;20550;-70
2021/04/18 07:08:23;;;;;;;18.70;9.10;;;;;;;;;;4422546;32;20142;-69
2021/04/18 07:10:49;;;;;;;17.60;9.40;;;;;;;;;;4423125;32;20172;-68
2021/04/18 07:13:15;;;;;;;17.97;8.70;;;;;;;;;;4423097;32;20138;-68
2021/04/18 07:15:42;;;;;;;15.23;10.33;;;;;;;;;;4422434;32;20523;-69
2021/04/18 07:18:08;;;;;;;18.77;8.90;;;;;;;;;;4422894;32;20138;-69
2021/04/18 07:20:33;;;;;;;17.77;10.10;;;;;;;;;;4422899;32;20137;-70
2021/04/18 07:23:23;;;;;;;20.77;13.20;;;;;;;;;;4422309;32;20194;-70
2021/04/18 07:25:48;;;;;;;18.80;11.30;;;;;;;;;;4422365;32;20188;-71
2021/04/18 07:28:20;;;;;;;14.70;8.77;;;;;;;;;;4422443;32;20193;-69
2021/04/18 07:30:49;;;;;;;19.03;8.67;;;;;;;;;;4422512;32;20199;-69
2021/04/18 07:33:15;;;;;;;17.00;8.10;;;;;;;;;;4421335;32;20693;-70
2021/04/18 07:35:41;;;;;;;13.20;8.13;;;;;;;;;;4422108;32;20145;-69
2021/04/18 07:38:26;;;;;;;16.63;9.13;;;;;;;;;;4421859;32;20516;-68
2021/04/18 07:40:52;;;;;;;20.27;9.17;;;;;;;;;;4421622;32;20150;-68
2021/04/18 07:43:18;;;;;;;14.70;9.27;;;;;;;;;;4421632;32;20150;-70
2021/04/18 07:45:45;;;;;;;20.67;10.70;;;;;;;;;;4421842;32;20153;-68
2021/04/18 07:48:11;;;;;;;18.07;11.47;;;;;;;;;;4421574;32;20203;-71
2021/04/18 07:50:36;;;;;;;22.67;12.07;;;;;;;;;;4407610;32;20196;-69
2021/04/18 07:53:02;;;;;;;25.13;12.63;;;;;;;;;;4421994;32;20150;-67
2021/04/18 07:55:29;;;;;;;21.90;12.80;;;;;;;;;;4421119;32;20149;-70
2021/04/18 07:57:55;;;;;;;23.33;13.73;;;;;;;;;;4421182;32;20161;-70
2021/04/18 08:00:20;;;;;;;27.63;13.10;;;;;;;;;;4406899;32;20184;-69
2021/04/18 08:02:47;;;;;;;23.73;13.13;;;;;;;;;;4422614;32;20150;-68
2021/04/18 08:05:13;;;;;;;25.30;11.80;;;;;;;;;;4421791;32;20159;-69
2021/04/18 08:07:58;;;;;;;23.93;12.30;;;;;;;;;;4421695;32;20479;-71
2021/04/18 08:10:24;;;;;;;18.87;11.47;;;;;;;;;;4408262;32;20201;-69
2021/04/18 08:13:23;;;;;;;21.53;11.40;;;;;;;;;;4421894;32;20205;-71
2021/04/18 08:15:55;;;;;;;19.23;10.80;;;;;;;;;;4379865;32;20165;-70
2021/04/18 08:18:31;;;;;;;19.17;10.17;;;;;;;;;;4421833;32;20203;-70
2021/04/18 08:20:56;;;;;;;16.60;10.27;;;;;;;;;;4421870;32;20142;-68
2021/04/18 08:23:40;;;;;;;18.33;11.40;;;;;;;;;;4421812;32;20169;-70
2021/04/18 08:26:08;;;;;;;21.50;11.43;;;;;;;;;;4420439;32;20239;-71
2021/04/18 08:29:09;;;;;;;21.60;12.37;;;;;;;;;;4421265;32;20149;-70
2021/04/18 08:31:51;;;;;;;21.07;11.47;;;;;;;;;;4421060;32;20175;-70
2021/04/18 08:34:18;;;;;;;19.87;10.97;;;;;;;;;;4421079;32;20226;-70
2021/04/18 08:36:49;;;;;;;16.77;9.97;;;;;;;;;;4403704;32;20185;-70
2021/04/18 08:39:14;;;;;;;19.47;9.73;;;;;;;;;;4405745;32;20162;-69
2021/04/18 08:41:48;;;;;;;20.63;10.23;;;;;;;;;;4404759;32;20193;-69
2021/04/18 08:44:21;;;;;;;17.03;11.77;;;;;;;;;;4417949;32;20572;-69
2021/04/18 08:46:47;;;;;;;27.37;11.87;;;;;;;;;;4421269;32;20154;-70
2021/04/18 08:49:24;;;;;;;17.63;10.67;;;;;;;;;;4420783;32;20647;-70
2021/04/18 08:51:51;;;;;;;20.17;9.10;;;;;;;;;;4420562;32;20176;-70
2021/04/18 08:54:21;;;;;;;14.37;9.10;;;;;;;;;;4420916;32;20165;-70
2021/04/18 08:56:51;;;;;;;16.80;10.70;;;;;;;;;;4421221;32;20197;-69
2021/04/18 08:59:20;;;;;;;18.17;11.47;;;;;;;;;;4421203;32;20137;-69
2021/04/18 09:01:53;;;;;;;19.20;10.87;;;;;;;;;;4421261;32;20210;-69
2021/04/18 09:04:21;;;;;;;22.03;11.20;;;;;;;;;;4421481;32;20172;-71
2021/04/18 09:06:48;;;;;;;19.20;11.00;;;;;;;;;;4420251;32;20494;-71
2021/04/18 09:09:14;;;;;;;19.60;10.73;;;;;;;;;;4420459;32;20194;-70
2021/04/18 09:11:41;;;;;;;20.20;10.17;;;;;;;;;;4420753;32;20145;-70
2021/04/18 09:14:06;;;;;;;21.53;10.70;;;;;;;;;;4420476;32;20595;-65
2021/04/18 09:16:33;;;;;;;22.17;10.90;;;;;;;;;;4420423;32;20138;-69
2021/04/18 09:19:16;;;;;;;20.37;10.40;;;;;;;;;;4420448;32;20195;-68
2021/04/18 09:21:55;;;;;;;16.87;9.83;;;;;;;;;;4405171;32;20181;-69
2021/04/18 09:24:20;;;;;;;17.93;8.83;;;;;;;;;;4405849;32;20157;-70
2021/04/18 09:26:59;;;;;;;17.87;9.37;;;;;;;;;;4405418;32;20535;-69
2021/04/18 09:29:26;;;;;;;17.90;8.87;;;;;;;;;;4404839;32;20138;-69
2021/04/18 09:32:00;;;;;;;16.00;8.50;;;;;;;;;;4405302;32;20172;-71
2021/04/18 09:34:26;;;;;;;15.50;8.97;;;;;;;;;;4391915;32;20182;-69
2021/04/18 09:36:52;;;;;;;16.92;9.13;;;;;;;;;;4391398;32;20195;-71
2021/04/18 09:39:18;;;;;;;17.95;8.80;;;;;;;;;;4409161;32;20199;-69
2021/04/18 09:41:53;;;;;;;16.17;9.27;;;;;;;;;;4420271;32;20555;-69
2021/04/18 09:44:29;;;;;;;17.03;9.97;;;;;;;;;;4420888;32;20149;-70
2021/04/18 09:46:59;;;;;;;16.60;9.90;;;;;;;;;;4420360;32;20217;-70
2021/04/18 09:49:25;;;;;;;17.77;8.63;;;;;;;;;;4419851;32;20153;-71
2021/04/18 09:51:51;;;;;;;18.37;8.90;;;;;;;;;;4421142;32;20168;-69
2021/04/18 09:54:25;;;;;;;16.95;8.38;;;;;;;;;;4421632;32;20153;-69
2021/04/18 09:57:10;;;;;;;13.52;7.80;;;;;;;;;;4419943;32;20176;-71
2021/04/18 09:59:35;;;;;;;13.18;7.68;;;;;;;;;;4419909;32;20192;-70
2021/04/18 10:02:10;;;;;;;12.95;8.35;;;;;;;;;;4405877;32;20294;-70
2021/04/18 10:04:35;;;;;;;14.02;8.05;;;;;;;;;;4420209;32;20203;-70
2021/04/18 10:07:00;;;;;;;18.27;7.12;;;;;;;;;;4420069;32;20153;-68
2021/04/18 10:09:46;;;;;;;14.55;7.00;;;;;;;;;;4420912;32;20137;-67
2021/04/18 10:12:11;;;;;;;17.00;7.87;;;;;;;;;;4420700;32;20146;-70
2021/04/18 10:14:36;;;;;;;17.10;8.70;;;;;;;;;;4420364;32;20142;-70
2021/04/18 10:17:02;;;;;;;12.75;7.85;;;;;;;;;;4405759;32;20165;-69
2021/04/18 10:19:27;;;;;;;14.15;7.93;;;;;;;;;;4403149;32;20194;-70
2021/04/18 10:22:07;;;;;;;16.12;7.80;;;;;;;;;;4404113;32;20138;-70
2021/04/18 10:24:41;;;;;;;18.77;8.60;;;;;;;;;;4404463;32;20223;-69
2021/04/18 10:27:08;;;;;;;15.93;8.60;;;;;;;;;;4404341;32;20206;-71
2021/04/18 10:29:34;;;;;;;16.45;8.55;;;;;;;;;;4404633;32;20562;-70
2021/04/18 10:31:59;;;;;;;15.18;8.63;;;;;;;;;;4418564;32;20138;-69
2021/04/18 10:34:26;;;;;;;13.85;8.05;;;;;;;;;;4420695;32;20173;-70
2021/04/18 10:36:52;;;;;;;15.98;8.50;;;;;;;;;;4419910;32;20160;-67
2021/04/18 10:39:18;;;;;;;17.55;8.70;;;;;;;;;;4419487;32;20180;-69
2021/04/18 10:41:43;;;;;;;15.98;8.52;;;;;;;;;;4409535;32;20162;-70
2021/04/18 10:44:18;;;;;;;16.15;7.30;;;;;;;;;;4422568;32;20157;-69
2021/04/18 10:46:43;;;;;;;13.40;7.00;;;;;;;;;;4422202;32;20181;-71
2021/04/18 10:49:09;;;;;;;11.27;7.10;;;;;;;;;;4422503;32;20135;-70
2021/04/18 10:51:34;;;;;;;12.25;7.15;;;;;;;;;;4422523;32;20134;-72
2021/04/18 10:53:59;;;;;;;10.95;6.40;;;;;;;;;;4423062;32;20142;-70
2021/04/18 10:56:25;;;;;;;10.43;6.68;;;;;;;;;;4423014;32;20242;-70
2021/04/18 10:58:50;;;;;;;13.77;6.85;;;;;;;;;;4408488;32;20500;-70
2021/04/18 11:01:15;;;;;;;13.95;7.35;;;;;;;;;;4423334;32;20168;-70
2021/04/18 11:03:40;;;;;;;10.63;6.35;;;;;;;;;;4423553;32;20142;-71
2021/04/18 11:06:08;;;;;;;13.32;6.80;;;;;;;;;;4422874;32;20164;-70
2021/04/18 11:08:37;;;;;;;12.23;6.82;;;;;;;;;;4422595;32;20176;-70
2021/04/18 11:11:03;;;;;;;11.98;6.00;;;;;;;;;;4408173;32;20192;-70
2021/04/18 11:13:28;;;;;;;11.98;6.40;;;;;;;;;;4422660;32;20499;-71
2021/04/18 11:15:54;;;;;;;9.90;6.05;;;;;;;;;;4422406;32;20137;-71
2021/04/18 11:18:19;;;;;;;8.80;5.70;;;;;;;;;;4408171;32;20566;-71
2021/04/18 11:20:44;;;;;;;10.65;6.03;;;;;;;;;;4421761;32;20173;-70
2021/04/18 11:23:11;;;;;;;10.88;5.70;;;;;;;;;;4422755;32;20154;-68
2021/04/18 11:25:36;;;;;;;9.25;5.20;;;;;;;;;;4421968;32;20505;-70
2021/04/18 11:28:01;;;;;;;8.00;4.75;;;;;;;;;;4422126;32;20169;-70
2021/04/18 11:30:39;;;;;;;9.23;5.60;;;;;;;;;;4421846;32;20479;-70
2021/04/18 11:33:04;;;;;;;6.90;5.05;;;;;;;;;;4422108;32;20133;-71
2021/04/18 11:35:30;;;;;;;8.90;5.60;;;;;;;;;;4407865;32;20184;-68
2021/04/18 11:37:56;;;;;;;10.38;4.97;;;;;;;;;;4422169;32;20169;-70
2021/04/18 11:40:21;;;;;;;7.97;4.93;;;;;;;;;;4421804;32;20461;-69
2021/04/18 11:42:47;;;;;;;9.10;5.05;;;;;;;;;;4422933;32;20157;-70
2021/04/18 11:45:13;;;;;;;10.43;5.35;;;;;;;;;;4407932;32;20587;-70
2021/04/18 11:47:38;;;;;;;9.25;5.18;;;;;;;;;;4421901;32;20142;-68
2021/04/18 11:50:04;;;;;;;8.70;5.32;;;;;;;;;;4420746;32;20549;-70
2021/04/18 11:52:32;;;;;;;10.52;5.05;;;;;;;;;;4420486;32;20266;-72
2021/04/18 11:54:57;;;;;;;8.98;4.97;;;;;;;;;;4421672;32;20142;-69
2021/04/18 11:57:22;;;;;;;8.98;4.97;;;;;;;;;;4421447;32;20164;-66
2021/04/18 11:59:48;;;;;;;6.62;4.60;;;;;;;;;;4398890;32;20205;-70
2021/04/18 12:02:19;;;;;;;7.43;4.70;;;;;;;;;;4404936;32;20221;-68
2021/04/18 12:04:44;;;;;;;8.07;4.37;;;;;;;;;;4410399;32;20212;-69
2021/04/18 12:07:10;;;;;;;7.18;4.10;;;;;;;;;;4417236;32;20181;-69
2021/04/18 12:09:35;;;;;;;7.97;5.22;;;;;;;;;;4421138;32;20170;-66
2021/04/18 12:12:01;;;;;;;7.57;4.90;;;;;;;;;;4393326;32;20205;-67
2021/04/18 12:14:31;;;;;;;8.70;5.18;;;;;;;;;;4405363;32;20188;-68
2021/04/18 12:16:57;;;;;;;8.55;4.97;;;;;;;;;;4417692;32;20154;-68
2021/04/18 12:19:25;;;;;;;7.50;4.20;;;;;;;;;;4406298;32;20188;-70
2021/04/18 12:21:53;;;;;;;8.77;4.55;;;;;;;;;;4421078;32;20229;-68
2021/04/18 12:24:19;;;;;;;8.43;4.85;;;;;;;;;;4422722;32;20192;-68
2021/04/18 12:26:45;;;;;;;7.53;4.65;;;;;;;;;;4420410;32;20634;-69
2021/04/18 12:29:10;;;;;;;8.75;5.15;;;;;;;;;;4421050;32;20227;-70
2021/04/18 12:31:39;;;;;;;6.28;4.82;;;;;;;;;;4421227;32;20207;-70
2021/04/18 12:34:04;;;;;;;6.95;4.60;;;;;;;;;;4421222;32;20133;-69
2021/04/18 12:36:29;;;;;;;9.32;4.90;;;;;;;;;;4419590;32;20177;-68
2021/04/18 12:38:55;;;;;;;9.00;4.70;;;;;;;;;;4406569;32;20206;-67
2021/04/18 12:41:20;;;;;;;6.97;3.92;;;;;;;;;;4419310;32;20138;-68
2021/04/18 12:43:45;;;;;;;11.38;4.35;;;;;;;;;;4421713;32;20230;-67
2021/04/18 12:46:10;;;;;;;5.90;4.10;;;;;;;;;;4420821;32;20616;-69
2021/04/18 12:48:36;;;;;;;6.55;4.07;;;;;;;;;;4420657;32;20161;-68
2021/04/18 12:51:01;;;;;;;6.18;4.12;;;;;;;;;;4420623;32;20185;-68
2021/04/18 12:53:27;;;;;;;8.90;5.35;;;;;;;;;;4420024;32;20188;-67
2021/04/18 12:55:52;;;;;;;10.05;4.75;;;;;;;;;;4420796;32;20135;-68
2021/04/18 12:58:18;;;;;;;12.13;5.20;;;;;;;;;;4405221;32;20134;-68
2021/04/18 13:00:43;;;;;;;10.43;5.47;;;;;;;;;;4404967;32;20448;-69
2021/04/18 13:03:08;;;;;;;10.55;5.78;;;;;;;;;;4404099;32;20173;-68
2021/04/18 13:05:33;;;;;;;10.35;5.35;;;;;;;;;;4409959;32;20213;-68
2021/04/18 13:07:59;;;;;;;8.13;5.75;;;;;;;;;;4420078;32;20267;-65
2021/04/18 13:10:27;;;;;;;13.27;5.90;;;;;;;;;;4420323;32;20190;-66
2021/04/18 13:12:52;;;;;;;10.52;5.80;;;;;;;;;;4420352;32;20160;-68
2021/04/18 13:15:18;;;;;;;10.77;5.70;;;;;;;;;;4421144;32;20138;-69
2021/04/18 13:17:43;;;;;;;8.52;5.78;;;;;;;;;;4420033;32;20141;-67
2021/04/18 13:20:09;;;;;;;10.43;6.32;;;;;;;;;;4421165;32;20211;-65
2021/04/18 13:22:35;;;;;;;8.10;5.68;;;;;;;;;;4420048;32;20194;-68
2021/04/18 13:25:00;;;;;;;10.35;5.53;;;;;;;;;;4405484;32;20177;-66
2021/04/18 13:27:25;;;;;;;10.50;5.62;;;;;;;;;;4419782;32;20149;-64
2021/04/18 13:29:51;;;;;;;8.30;5.55;;;;;;;;;;4414183;32;20166;-67
2021/04/18 13:32:16;;;;;;;9.00;5.70;;;;;;;;;;4401718;32;20247;-67
2021/04/18 13:34:41;;;;;;;9.05;5.45;;;;;;;;;;4416583;32;20291;-65
2021/04/18 13:37:07;;;;;;;9.85;6.22;;;;;;;;;;4406589;32;20169;-68
2021/04/18 13:39:39;;;;;;;11.18;5.90;;;;;;;;;;4420027;32;20179;-68
2021/04/18 13:42:05;;;;;;;9.98;5.93;;;;;;;;;;4420889;32;20153;-69
2021/04/18 13:44:31;;;;;;;11.50;6.40;;;;;;;;;;4409829;32;20154;-67
2021/04/18 13:46:56;;;;;;;12.43;6.75;;;;;;;;;;4358657;32;20233;-68
2021/04/18 13:49:21;;;;;;;11.32;6.03;;;;;;;;;;4349502;32;20170;-66
2021/04/18 13:51:47;;;;;;;12.43;6.03;;;;;;;;;;4344754;33;20201;-67
2021/04/18 13:54:12;;;;;;;9.65;5.80;;;;;;;;;;4352197;33;20159;-70
2021/04/18 13:56:38;;;;;;;11.52;6.10;;;;;;;;;;4354305;32;20144;-68
2021/04/18 13:59:04;;;;;;;15.75;6.80;;;;;;;;;;4344773;32;20660;-67
2021/04/18 14:01:30;;;;;;;10.15;6.40;;;;;;;;;;4344830;33;20135;-67
2021/04/18 14:03:55;;;;;;;11.10;6.03;;;;;;;;;;4344541;33;20163;-67
2021/04/18 14:06:20;;;;;;;10.60;6.47;;;;;;;;;;4344629;33;20227;-66
2021/04/18 14:08:46;;;;;;;15.38;7.20;;;;;;;;;;4347284;33;20295;-67
2021/04/18 14:11:12;;;;;;;10.27;6.90;;;;;;;;;;4350206;33;20147;-67
2021/04/18 14:13:42;;;;;;;10.63;6.50;;;;;;;;;;4348725;33;20159;-68
2021/04/18 14:16:07;;;;;;;9.52;6.60;;;;;;;;;;4349604;32;20194;-63
2021/04/18 14:18:32;;;;;;;9.90;6.72;;;;;;;;;;4354468;32;20163;-69
2021/04/18 14:20:58;;;;;;;11.73;6.97;;;;;;;;;;4346209;33;20217;-68
2021/04/18 14:23:23;;;;;;;13.82;6.95;;;;;;;;;;4349370;32;20267;-63
2021/04/18 14:25:49;;;;;;;12.95;7.35;;;;;;;;;;4359631;32;20237;-66
2021/04/18 14:28:14;;;;;;;9.27;6.93;;;;;;;;;;4355948;32;20178;-66
2021/04/18 14:30:39;;;;;;;14.82;7.97;;;;;;;;;;4351117;33;20337;-66
2021/04/18 14:33:05;;;;;;;14.87;7.93;;;;;;;;;;4363149;32;20197;-65
2021/04/18 14:35:30;;;;;;;16.98;8.10;;;;;;;;;;4362682;32;20151;-68
2021/04/18 14:37:55;;;;;;;12.37;7.93;;;;;;;;;;4351786;32;20253;-67
2021/04/18 14:40:21;;;;;;;12.52;8.02;;;;;;;;;;4356625;33;20177;-67
2021/04/18 14:42:46;;;;;;;15.95;8.10;;;;;;;;;;4347364;32;20209;-66
2021/04/18 14:45:11;;;;;;;12.70;7.78;;;;;;;;;;4355067;33;20155;-66
2021/04/18 14:47:37;;;;;;;13.45;8.32;;;;;;;;;;4349517;33;20155;-67
2021/04/18 14:50:03;;;;;;;12.45;8.27;;;;;;;;;;4360890;32;20264;-68